createdAt,value
2022-11-24T00:01:16.384Z,24.87
2022-11-24T00:03:44.326Z,26.13
2022-11-24T00:06:13.700Z,32.77
2022-11-24T00:08:42.536Z,22.63
2022-11-24T00:11:15.514Z,27.90
2022-11-24T00:13:42.656Z,23.57
2022-11-24T00:16:10.753Z,52.63
2022-11-24T00:18:46.445Z,31.48
2022-11-24T00:21:14.798Z,27.33
2022-11-24T00:23:41.629Z,25.73
2022-11-24T00:26:13.788Z,24.07
2022-11-24T00:28:41.452Z,24.83
2022-11-24T00:31:17.905Z,26.67
2022-11-24T00:33:46.346Z,22.03
2022-11-24T00:36:13.805Z,24.20
2022-11-24T00:38:40.544Z,19.23
2022-11-24T00:41:07.518Z,32.13
2022-11-24T00:43:34.555Z,23.50
2022-11-24T00:46:01.836Z,26.80
2022-11-24T00:48:28.727Z,25.23
2022-11-24T00:51:00.807Z,22.93
2022-11-24T00:53:28.617Z,25.10
2022-11-24T00:55:55.920Z,24.60
2022-11-24T00:58:23.830Z,21.03
2022-11-24T01:00:51.553Z,23.53
2022-11-24T01:03:19.486Z,24.40
2022-11-24T01:05:46.673Z,23.00
2022-11-24T01:08:13.269Z,29.30
2022-11-24T01:10:39.953Z,33.70
2022-11-24T01:13:06.724Z,40.53
2022-11-24T01:15:35.901Z,58.07
2022-11-24T01:18:03.221Z,57.63
2022-11-24T01:20:30.232Z,31.43
2022-11-24T01:22:57.029Z,39.00
2022-11-24T01:25:23.766Z,75.20
2022-11-24T01:27:50.485Z,16.30
2022-11-24T01:30:17.421Z,17.47
2022-11-24T01:32:44.147Z,24.53
2022-11-24T01:35:10.788Z,37.80
2022-11-24T01:37:37.395Z,44.07
2022-11-24T01:40:04.645Z,28.60
2022-11-24T01:42:47.222Z,22.77
2022-11-24T01:45:40.886Z,22.90
2022-11-24T01:48:16.500Z,23.03
2022-11-24T01:50:44.236Z,24.73
2022-11-24T01:53:12.889Z,20.30
2022-11-24T01:55:40.505Z,15.43
2022-11-24T01:58:13.178Z,19.10
2022-11-24T02:00:42.865Z,19.57
2022-11-24T02:03:12.115Z,13.17
2022-11-24T02:05:55.353Z,10.00
2022-11-24T02:08:31.117Z,7.60
2022-11-24T02:10:58.011Z,9.90
2022-11-24T02:13:25.180Z,8.47
2022-11-24T02:15:53.329Z,8.70
2022-11-24T02:18:20.087Z,8.10
2022-11-24T02:20:46.774Z,7.87
2022-11-24T02:23:57.203Z,12.33
2022-11-24T02:26:46.640Z,11.63
2022-11-24T02:29:14.481Z,9.30
2022-11-24T02:31:55.290Z,24.43
2022-11-24T02:34:21.926Z,23.73
2022-11-24T02:36:48.598Z,24.70
2022-11-24T02:39:16.337Z,20.70
2022-11-24T02:41:47.730Z,19.87
2022-11-24T02:44:15.814Z,27.63
2022-11-24T02:46:42.466Z,26.67
2022-11-24T02:49:09.232Z,32.63
2022-11-24T02:51:35.916Z,35.40
2022-11-24T02:54:02.562Z,30.77
2022-11-24T02:56:29.250Z,35.30
2022-11-24T02:58:55.861Z,36.87
2022-11-24T03:01:22.751Z,35.53
2022-11-24T03:03:49.404Z,35.23
2022-11-24T03:06:15.993Z,32.23
2022-11-24T03:08:42.654Z,32.17
2022-11-24T03:11:09.256Z,26.33
2022-11-24T03:13:35.988Z,36.37
2022-11-24T03:16:02.607Z,29.90
2022-11-24T03:18:31.938Z,30.60
2022-11-24T03:21:01.656Z,18.40
2022-11-24T03:23:28.283Z,19.20
2022-11-24T03:25:55.105Z,14.73
2022-11-24T03:28:21.733Z,20.37
2022-11-24T03:30:49.332Z,15.07
2022-11-24T03:33:16.029Z,17.03
2022-11-24T03:35:42.744Z,19.43
2022-11-24T03:38:09.876Z,22.77
2022-11-24T03:40:36.584Z,21.27
2022-11-24T03:43:03.352Z,16.17
2022-11-24T03:45:46.584Z,22.60
2022-11-24T03:48:14.280Z,15.90
2022-11-24T03:50:40.882Z,11.30
2022-11-24T03:53:07.867Z,13.27
2022-11-24T03:55:34.677Z,26.87
2022-11-24T03:58:01.404Z,28.63
2022-11-24T04:00:28.164Z,28.70
2022-11-24T04:02:54.816Z,34.77
2022-11-24T04:05:21.626Z,35.70
2022-11-24T04:07:48.265Z,34.17
2022-11-24T04:10:15.002Z,33.97
2022-11-24T04:12:44.268Z,30.80
2022-11-24T04:15:13.709Z,31.20
2022-11-24T04:17:40.704Z,38.23
2022-11-24T04:20:08.449Z,35.00
2022-11-24T04:22:35.828Z,33.70
2022-11-24T04:25:03.587Z,33.80
2022-11-24T04:27:30.518Z,34.43
2022-11-24T04:29:57.116Z,40.47
2022-11-24T04:32:23.807Z,38.13
2022-11-24T04:34:50.415Z,31.87
2022-11-24T04:37:17.150Z,26.43
2022-11-24T04:39:44.932Z,28.27
2022-11-24T04:42:11.573Z,23.40
2022-11-24T04:44:38.452Z,23.23
2022-11-24T04:47:05.790Z,26.00
2022-11-24T04:49:32.568Z,33.57
2022-11-24T04:51:59.212Z,34.03
2022-11-24T04:54:25.869Z,24.00
2022-11-24T04:56:53.361Z,23.30
2022-11-24T04:59:20.257Z,23.17
2022-11-24T05:01:47.332Z,21.73
2022-11-24T05:04:15.818Z,20.83
2022-11-24T05:06:42.687Z,26.33
2022-11-24T05:09:14.764Z,23.80
2022-11-24T05:11:42.589Z,22.57
2022-11-24T05:14:09.289Z,26.57
2022-11-24T05:16:36.096Z,33.90
2022-11-24T05:19:02.951Z,30.93
2022-11-24T05:21:29.605Z,29.17
2022-11-24T05:23:56.292Z,26.87
2022-11-24T05:26:22.983Z,22.70
2022-11-24T05:28:49.678Z,28.23
2022-11-24T05:31:16.461Z,28.03
2022-11-24T05:33:43.406Z,32.50
2022-11-24T05:36:30.311Z,65.13
2022-11-24T05:38:57.020Z,86.60
2022-11-24T05:41:23.728Z,82.23
2022-11-24T05:43:50.429Z,74.07
2022-11-24T05:46:17.151Z,66.87
2022-11-24T05:48:43.934Z,76.10
2022-11-24T05:51:10.675Z,70.97
2022-11-24T05:53:37.369Z,73.33
2022-11-24T05:56:08.564Z,60.70
2022-11-24T05:58:35.283Z,72.07
2022-11-24T06:01:06.263Z,70.20
2022-11-24T06:03:32.918Z,82.27
2022-11-24T06:05:59.557Z,67.00
2022-11-24T06:08:30.867Z,54.33
2022-11-24T06:11:19.892Z,56.33
2022-11-24T06:13:48.681Z,55.53
2022-11-24T06:16:15.681Z,48.60
2022-11-24T06:18:42.455Z,45.17
2022-11-24T06:21:11.123Z,46.37
2022-11-24T06:23:39.500Z,59.20
2022-11-24T06:26:06.485Z,55.37
2022-11-24T06:28:33.236Z,60.30
2022-11-24T06:31:04.215Z,51.83
2022-11-24T06:33:35.656Z,62.00
2022-11-24T06:36:05.186Z,51.43
2022-11-24T06:38:32.514Z,52.58
2022-11-24T06:41:03.649Z,51.60
2022-11-24T06:43:30.899Z,35.88
2022-11-24T06:45:57.952Z,31.45
2022-11-24T06:48:25.898Z,23.67
2022-11-24T06:50:53.424Z,23.10
2022-11-24T06:53:20.112Z,22.83
2022-11-24T06:55:47.348Z,25.88
2022-11-24T06:58:14.019Z,22.48
2022-11-24T07:00:40.848Z,26.50
2022-11-24T07:03:07.570Z,32.35
2022-11-24T07:05:34.250Z,29.02
2022-11-24T07:08:00.904Z,28.23
2022-11-24T07:10:27.577Z,38.60
2022-11-24T07:12:54.482Z,87.72
2022-11-24T07:15:21.117Z,32.97
2022-11-24T07:17:47.836Z,64.53
2022-11-24T07:20:14.497Z,42.75
2022-11-24T07:22:41.227Z,36.38
2022-11-24T07:25:09.897Z,38.60
2022-11-24T07:27:37.292Z,30.27
2022-11-24T07:30:04.555Z,29.50
2022-11-24T07:32:31.487Z,28.30
2022-11-24T07:34:58.227Z,26.52
2022-11-24T07:37:30.855Z,23.83
2022-11-24T07:39:58.109Z,24.10
2022-11-24T07:42:24.829Z,31.88
2022-11-24T07:44:51.482Z,36.47
2022-11-24T07:47:18.180Z,53.22
2022-11-24T07:49:44.806Z,33.72
2022-11-24T07:52:11.681Z,35.35
2022-11-24T07:54:38.277Z,34.05
2022-11-24T07:57:04.947Z,30.15
2022-11-24T07:59:31.853Z,26.23
2022-11-24T08:01:58.530Z,33.35
2022-11-24T08:04:25.261Z,27.20
2022-11-24T08:06:51.869Z,31.77
2022-11-24T08:09:18.532Z,29.08
2022-11-24T08:11:45.267Z,38.17
2022-11-24T08:14:11.916Z,20.60
2022-11-24T08:16:39.640Z,24.27
2022-11-24T08:19:06.341Z,14.00
2022-11-24T08:21:33.106Z,14.95
2022-11-24T08:23:59.814Z,13.27
2022-11-24T08:26:26.587Z,13.07
2022-11-24T08:28:56.542Z,16.15
2022-11-24T08:31:24.932Z,19.98
2022-11-24T08:33:51.724Z,19.55
2022-11-24T08:36:19.552Z,15.48
2022-11-24T08:38:46.770Z,22.10
2022-11-24T08:41:15.944Z,13.93
2022-11-24T08:43:43.059Z,19.70
2022-11-24T08:46:12.609Z,16.98
2022-11-24T08:48:40.042Z,16.52
2022-11-24T08:51:15.488Z,17.52
2022-11-24T08:53:43.146Z,16.38
2022-11-24T08:56:11.638Z,17.73
2022-11-24T08:58:39.027Z,17.60
2022-11-24T09:01:08.742Z,16.92
2022-11-24T09:03:36.120Z,19.52
2022-11-24T09:06:03.883Z,21.60
2022-11-24T09:08:31.357Z,16.88
2022-11-24T09:11:05.416Z,15.70
2022-11-24T09:13:32.545Z,13.20
2022-11-24T09:16:07.240Z,10.95
2022-11-24T09:18:34.244Z,12.50
2022-11-24T09:21:19.237Z,10.98
2022-11-24T09:23:48.700Z,11.90
2022-11-24T09:26:25.466Z,13.80
2022-11-24T09:28:54.682Z,11.10
2022-11-24T09:31:23.685Z,10.75
2022-11-24T09:33:50.560Z,9.65
2022-11-24T09:36:17.368Z,8.68
2022-11-24T09:38:44.176Z,8.15
2022-11-24T09:41:36.312Z,9.27
2022-11-24T09:44:21.217Z,6.05
2022-11-24T09:46:53.814Z,7.82
2022-11-24T09:49:51.446Z,5.82
2022-11-24T09:52:37.758Z,4.78
2022-11-24T09:55:12.336Z,6.07
2022-11-24T09:57:44.108Z,5.80
2022-11-24T10:00:16.774Z,6.45
2022-11-24T10:02:48.152Z,3.92
2022-11-24T10:05:14.995Z,6.70
2022-11-24T10:08:18.939Z,3.88
2022-11-24T10:10:51.262Z,1.98
2022-11-24T10:13:46.141Z,4.50
2022-11-24T10:16:37.371Z,2.20
2022-11-24T10:19:33.897Z,1.30
2022-11-24T10:22:16.478Z,3.75
2022-11-24T10:25:04.998Z,2.22
2022-11-24T10:27:43.516Z,2.17
2022-11-24T10:30:29.109Z,9.75
2022-11-24T10:33:03.765Z,1.67
2022-11-24T10:35:50.754Z,1.80
2022-11-24T10:38:20.236Z,1.75
2022-11-24T10:40:59.581Z,2.75
2022-11-24T10:43:30.593Z,7.78
2022-11-24T10:46:11.750Z,1.75
2022-11-24T10:48:43.468Z,2.65
2022-11-24T10:51:31.257Z,1.38
2022-11-24T10:54:22.302Z,2.60
2022-11-24T10:56:51.739Z,6.15
2022-11-24T10:59:27.851Z,4.55
2022-11-24T11:01:55.639Z,3.50
2022-11-24T11:04:27.376Z,1.35
2022-11-24T11:07:20.994Z,1.98
2022-11-24T11:09:48.749Z,6.22
2022-11-24T11:12:43.277Z,3.05
2022-11-24T11:15:26.683Z,3.72
2022-11-24T11:17:57.637Z,2.28
2022-11-24T11:20:35.257Z,1.80
2022-11-24T11:23:14.514Z,1.00
2022-11-24T11:25:41.445Z,1.75
2022-11-24T11:28:18.103Z,2.47
2022-11-24T11:31:22.026Z,5.38
2022-11-24T11:34:21.840Z,3.70
2022-11-24T11:36:54.664Z,0.90
2022-11-24T11:39:25.416Z,3.58
2022-11-24T11:42:02.473Z,5.57
2022-11-24T11:45:02.657Z,4.25
2022-11-24T11:47:43.520Z,5.90
2022-11-24T11:50:20.795Z,9.77
2022-11-24T11:52:56.062Z,3.30
2022-11-24T11:55:50.073Z,6.45
2022-11-24T11:58:49.169Z,5.15
2022-11-24T12:01:30.738Z,2.03
2022-11-24T12:04:35.191Z,3.35
2022-11-24T12:07:23.402Z,2.75
2022-11-24T12:09:55.855Z,4.07
2022-11-24T12:12:59.945Z,4.57
2022-11-24T12:15:35.871Z,5.07
2022-11-24T12:18:21.464Z,4.43
2022-11-24T12:21:17.958Z,4.45
2022-11-24T12:24:19.358Z,7.40
2022-11-24T12:26:59.055Z,6.88
2022-11-24T12:29:50.545Z,4.68
2022-11-24T12:32:32.367Z,6.55
2022-11-24T12:35:05.998Z,7.32
2022-11-24T12:37:35.692Z,11.82
2022-11-24T12:40:23.308Z,14.27
2022-11-24T12:43:17.791Z,7.78
2022-11-24T12:46:02.123Z,10.48
2022-11-24T12:48:43.696Z,9.05
2022-11-24T12:51:18.924Z,11.52
2022-11-24T12:53:48.173Z,13.88
2022-11-24T12:56:19.969Z,8.40
2022-11-24T12:59:12.701Z,5.07
2022-11-24T13:01:59.270Z,7.63
2022-11-24T13:04:40.323Z,9.50
2022-11-24T13:07:12.205Z,10.27
2022-11-24T13:10:00.824Z,10.18
2022-11-24T13:12:27.462Z,21.30
2022-11-24T13:14:54.195Z,34.50
2022-11-24T13:17:33.739Z,18.13
2022-11-24T13:20:39.712Z,14.38
2022-11-24T13:23:20.425Z,9.35
2022-11-24T13:26:28.160Z,10.60
2022-11-24T13:29:17.948Z,12.73
2022-11-24T13:31:51.075Z,54.17
2022-11-24T13:34:39.601Z,48.83
2022-11-24T13:37:27.283Z,35.85
2022-11-24T13:42:57.330Z,18.95
2022-11-24T13:45:39.011Z,36.85
2022-11-24T13:48:21.675Z,39.60
2022-11-24T13:50:54.771Z,23.88
2022-11-24T13:53:36.077Z,16.55
2022-11-24T13:56:02.744Z,18.60
2022-11-24T13:58:50.184Z,26.90
2022-11-24T14:01:31.321Z,16.48
2022-11-24T14:04:29.181Z,11.82
2022-11-24T14:06:58.301Z,22.20
2022-11-24T14:09:36.094Z,28.33
2022-11-24T14:12:21.205Z,37.70
2022-11-24T14:14:50.475Z,42.95
2022-11-24T14:17:22.944Z,34.67
2022-11-24T14:19:55.219Z,31.60
2022-11-24T14:22:31.652Z,23.17
2022-11-24T14:25:00.970Z,13.00
2022-11-24T14:27:38.577Z,12.95
2022-11-24T14:30:19.177Z,30.17
2022-11-24T14:33:00.305Z,141.02
2022-11-24T14:35:31.629Z,124.43
2022-11-24T14:37:59.975Z,71.45
2022-11-24T14:40:43.323Z,32.75
2022-11-24T14:43:27.929Z,41.63
2022-11-24T14:46:03.822Z,34.72
2022-11-24T14:48:37.787Z,39.28
2022-11-24T14:51:15.613Z,32.28
2022-11-24T14:53:45.471Z,30.90
2022-11-24T14:56:26.308Z,30.30
2022-11-24T14:58:54.324Z,29.23
2022-11-24T15:01:27.032Z,24.05
2022-11-24T15:04:17.870Z,12.90
2022-11-24T15:07:13.862Z,27.35
2022-11-24T15:09:58.610Z,21.13
2022-11-24T15:12:30.840Z,26.58
2022-11-24T15:15:04.439Z,32.28
2022-11-24T15:17:31.600Z,32.97
2022-11-24T15:20:24.490Z,31.63
2022-11-24T15:22:52.528Z,29.77
2022-11-24T15:25:33.488Z,31.73
2022-11-24T15:28:01.101Z,43.10
2022-11-24T15:30:34.644Z,61.72
2022-11-24T15:33:01.907Z,44.72
2022-11-24T15:35:32.752Z,34.22
2022-11-24T15:37:59.806Z,24.50
2022-11-24T15:40:26.566Z,24.25
2022-11-24T15:42:55.883Z,35.08
2022-11-24T15:45:25.201Z,30.88
2022-11-24T15:47:52.279Z,34.17
2022-11-24T15:50:19.268Z,83.70
2022-11-24T15:52:47.548Z,65.53
2022-11-24T15:55:22.485Z,55.00
2022-11-24T15:57:49.972Z,71.10
2022-11-24T16:00:21.102Z,68.72
2022-11-24T16:02:48.961Z,61.38
2022-11-24T16:05:17.936Z,90.90
2022-11-24T16:07:44.934Z,44.22
2022-11-24T16:10:30.579Z,44.05
2022-11-24T16:12:57.655Z,58.65
2022-11-24T16:15:24.280Z,59.80
2022-11-24T16:17:51.429Z,79.05
2022-11-24T16:20:18.435Z,70.35
2022-11-24T16:22:45.348Z,106.20
2022-11-24T16:25:13.010Z,81.93
2022-11-24T16:27:39.796Z,41.13
2022-11-24T16:30:07.507Z,49.78
2022-11-24T16:32:35.032Z,58.03
2022-11-24T16:35:02.134Z,44.20
2022-11-24T16:37:28.907Z,49.13
2022-11-24T16:39:56.134Z,52.65
2022-11-24T16:42:22.829Z,57.92
2022-11-24T16:44:50.681Z,64.50
2022-11-24T16:47:17.500Z,87.00
2022-11-24T16:49:46.271Z,51.33
2022-11-24T16:52:12.959Z,54.33
2022-11-24T16:54:39.686Z,54.33
2022-11-24T16:57:10.320Z,45.55
2022-11-24T16:59:43.428Z,43.08
2022-11-24T17:02:12.652Z,47.53
2022-11-24T17:04:39.537Z,112.13
2022-11-24T17:07:06.280Z,64.47
2022-11-24T17:09:37.360Z,48.40
2022-11-24T17:12:06.969Z,72.90
2022-11-24T17:14:33.857Z,70.30
2022-11-24T17:17:00.896Z,60.25
2022-11-24T17:19:27.739Z,54.42
2022-11-24T17:21:54.776Z,50.75
2022-11-24T17:24:21.545Z,44.83
2022-11-24T17:26:50.548Z,45.60
2022-11-24T17:29:17.970Z,46.33
2022-11-24T17:31:44.842Z,51.25
2022-11-24T17:34:12.627Z,45.03
2022-11-24T17:36:44.867Z,68.22
2022-11-24T17:39:12.031Z,76.90
2022-11-24T17:41:38.934Z,86.57
2022-11-24T17:44:07.584Z,79.35
2022-11-24T17:46:34.742Z,66.47
2022-11-24T17:49:01.405Z,62.80
2022-11-24T17:51:28.116Z,68.03
2022-11-24T17:53:56.179Z,67.20
2022-11-24T17:56:27.581Z,57.58
2022-11-24T17:58:59.414Z,50.67
2022-11-24T18:01:28.649Z,56.90
2022-11-24T18:03:55.724Z,57.63
2022-11-24T18:06:25.412Z,57.97
2022-11-24T18:08:54.134Z,56.40
2022-11-24T18:11:30.666Z,64.43
2022-11-24T18:14:01.423Z,76.22
2022-11-24T18:16:31.285Z,69.43
2022-11-24T18:19:09.890Z,56.05
2022-11-24T18:21:41.491Z,56.45
2022-11-24T18:24:09.963Z,36.05
2022-11-24T18:26:37.788Z,27.13
2022-11-24T18:29:04.660Z,110.90
2022-11-24T18:31:32.345Z,65.97
2022-11-24T18:33:59.581Z,70.28
2022-11-24T18:36:30.344Z,50.67
2022-11-24T18:39:00.988Z,55.25
2022-11-24T18:41:27.663Z,44.35
2022-11-24T18:43:54.264Z,43.38
2022-11-24T18:46:21.051Z,43.67
2022-11-24T18:48:47.778Z,61.75
2022-11-24T18:51:14.877Z,61.83
2022-11-24T18:53:43.285Z,104.38
2022-11-24T18:56:16.133Z,78.38
2022-11-24T18:58:43.623Z,59.65
2022-11-24T19:01:19.183Z,59.00
2022-11-24T19:03:49.440Z,76.10
2022-11-24T19:06:23.984Z,90.85
2022-11-24T19:08:54.364Z,91.07
2022-11-24T19:11:23.959Z,82.57
2022-11-24T19:13:51.430Z,68.78
2022-11-24T19:16:19.783Z,60.20
2022-11-24T19:18:53.563Z,66.13
2022-11-24T19:21:21.167Z,74.53
2022-11-24T19:23:47.933Z,74.20
2022-11-24T19:26:14.624Z,81.72
2022-11-24T19:28:41.463Z,94.22
2022-11-24T19:31:10.931Z,52.70
2022-11-24T19:33:38.048Z,43.67
2022-11-24T19:36:12.172Z,42.30
2022-11-24T19:38:39.096Z,49.38
2022-11-24T19:41:11.962Z,50.20
2022-11-24T19:43:39.478Z,44.65
2022-11-24T19:46:14.289Z,48.28
2022-11-24T19:48:50.349Z,57.45
2022-11-24T19:51:25.785Z,41.33
2022-11-24T19:53:53.206Z,46.47
2022-11-24T19:56:21.963Z,48.20
2022-11-24T19:58:49.712Z,55.72
2022-11-24T20:01:24.944Z,51.60
2022-11-24T20:04:13.643Z,50.33
2022-11-24T20:06:43.249Z,51.45
2022-11-24T20:09:12.128Z,45.20
2022-11-24T20:11:39.687Z,42.97
2022-11-24T20:14:08.085Z,43.30
2022-11-24T20:16:35.344Z,40.83
2022-11-24T20:19:05.921Z,45.83
2022-11-24T20:21:34.298Z,40.42
2022-11-24T20:24:02.306Z,36.05
2022-11-24T20:26:31.936Z,56.42
2022-11-24T20:29:00.397Z,64.80
2022-11-24T20:31:33.818Z,55.72
2022-11-24T20:34:02.683Z,19.27
2022-11-24T20:36:31.271Z,22.20
2022-11-24T20:39:00.794Z,14.80
2022-11-24T20:41:30.423Z,20.42
2022-11-24T20:43:59.955Z,11.30
2022-11-24T20:46:32.278Z,16.73
2022-11-24T20:49:00.115Z,16.08
2022-11-24T20:51:29.229Z,13.60
2022-11-24T20:53:59.806Z,12.45
2022-11-24T20:56:29.601Z,9.63
2022-11-24T20:58:57.048Z,11.50
2022-11-24T21:01:29.968Z,15.60
2022-11-24T21:03:58.827Z,10.90
2022-11-24T21:06:28.008Z,13.40
2022-11-24T21:09:00.501Z,12.82
2022-11-24T21:11:30.684Z,20.90
2022-11-24T21:13:57.931Z,22.90
2022-11-24T21:16:30.273Z,24.05
2022-11-24T21:18:59.406Z,24.25
2022-11-24T21:21:33.440Z,18.25
2022-11-24T21:24:11.684Z,21.17
2022-11-24T21:26:40.036Z,39.95
2022-11-24T21:29:07.313Z,59.63
2022-11-24T21:31:38.540Z,70.93
2022-11-24T21:34:07.265Z,42.88
2022-11-24T21:36:35.202Z,37.85
2022-11-24T21:39:03.832Z,26.40
2022-11-24T21:41:33.239Z,30.77
2022-11-24T21:44:00.182Z,24.90
2022-11-24T21:46:28.967Z,22.50
2022-11-24T21:48:55.835Z,25.25
2022-11-24T21:51:22.448Z,23.50
2022-11-24T21:53:49.210Z,20.77
2022-11-24T21:56:21.126Z,21.45
2022-11-24T21:58:58.787Z,20.83
2022-11-24T22:01:28.199Z,20.85
2022-11-24T22:03:55.931Z,17.90
2022-11-24T22:06:22.874Z,19.95
2022-11-24T22:08:49.913Z,23.90
2022-11-24T22:11:22.138Z,23.27
2022-11-24T22:13:50.374Z,20.40
2022-11-24T22:16:24.925Z,19.42
2022-11-24T22:18:51.914Z,22.55
2022-11-24T22:21:23.794Z,21.75
2022-11-24T22:23:52.651Z,23.13
2022-11-24T22:26:22.519Z,17.88
2022-11-24T22:28:50.052Z,17.88
2022-11-24T22:31:23.464Z,16.60
2022-11-24T22:33:51.148Z,15.75
2022-11-24T22:36:20.918Z,17.08
2022-11-24T22:38:48.106Z,22.23
2022-11-24T22:41:17.348Z,22.27
2022-11-24T22:43:45.443Z,23.02
2022-11-24T22:46:20.524Z,19.25
2022-11-24T22:48:50.211Z,15.40
2022-11-24T22:51:23.862Z,24.73
2022-11-24T22:53:53.171Z,19.80
2022-11-24T22:56:20.464Z,24.05
2022-11-24T22:58:47.714Z,24.67
2022-11-24T23:01:16.992Z,22.98
2022-11-24T23:03:44.361Z,23.33
2022-11-24T23:06:20.347Z,27.25
2022-11-24T23:08:47.751Z,23.88
2022-11-24T23:11:20.162Z,8.48
2022-11-24T23:13:47.287Z,10.73
2022-11-24T23:16:17.403Z,9.02
2022-11-24T23:18:47.816Z,14.32
2022-11-24T23:21:28.691Z,7.70
2022-11-24T23:23:55.908Z,9.45
2022-11-24T23:26:27.974Z,7.45
2022-11-24T23:28:54.661Z,19.33
2022-11-24T23:31:24.592Z,12.88
2022-11-24T23:33:51.406Z,10.85
2022-11-24T23:36:19.678Z,8.63
2022-11-24T23:38:46.740Z,7.53
2022-11-24T23:41:23.083Z,9.50
2022-11-24T23:43:49.749Z,10.05
2022-11-24T23:46:20.684Z,8.15
2022-11-24T23:48:48.295Z,9.95
2022-11-24T23:51:20.919Z,13.10
2022-11-24T23:53:48.006Z,10.35
2022-11-24T23:56:16.856Z,9.88
2022-11-24T23:58:43.768Z,8.85
